Box Canyon, California
Current Conditions -  °F | °C
As of 12:51 PM on Tuesday 25 Nov 2014 (Local Time) from KVNY Reporting Station
Clear Clear  
Wind Chill: 79°   Ceiling: Unl
Heat Index: 79°   Visibility: 10mi
Dew Point:   Wind: 6mph
Humidity: 6%   Direction: 340°NNW
Pressure: 30.29"   Gusts: NA
Location:  34.2242°N, 118.632°W
Report Text: KVNY 252051Z 34005KT 10SM CLR 26/M16 A3029 RMK AO2 SLP250 T02611156 58037
Loading
Personal Weather Stations






























Interactive Weather Map New forecast layout! Learn more

10-Day Weather Forecast

Advertisements
Track Severe Weather on mobile